createdAt,value
2023-09-01T00:04:10.272Z,2.03
2023-09-01T00:09:09.051Z,2.00
2023-09-01T00:14:08.057Z,2.33
2023-09-01T00:19:07.030Z,2.75
2023-09-01T00:24:07.870Z,2.13
2023-09-01T00:29:06.877Z,2.10
2023-09-01T00:34:06.570Z,2.33
2023-09-01T00:39:06.939Z,2.30
2023-09-01T00:44:06.768Z,2.40
2023-09-01T00:49:05.689Z,2.13
2023-09-01T00:54:06.902Z,2.40
2023-09-01T00:59:06.417Z,2.25
2023-09-01T01:04:09.174Z,2.22
2023-09-01T01:09:19.217Z,3.03
2023-09-01T01:14:25.990Z,2.58
2023-09-01T01:19:51.497Z,2.95
2023-09-01T01:24:51.859Z,2.58
2023-09-01T01:29:51.083Z,2.72
2023-09-01T01:34:56.316Z,2.90
2023-09-01T01:39:58.004Z,2.33
2023-09-01T01:44:59.344Z,2.38
2023-09-01T01:49:58.211Z,2.80
2023-09-01T01:54:58.559Z,2.70
2023-09-01T01:59:57.408Z,3.00
2023-09-01T02:04:56.304Z,3.03
2023-09-01T02:09:55.092Z,2.90
2023-09-01T02:14:55.673Z,3.10
2023-09-01T02:19:54.706Z,3.03
2023-09-01T02:24:53.584Z,3.58
2023-09-01T02:29:52.455Z,3.45
2023-09-01T02:34:52.844Z,3.60
2023-09-01T02:39:51.773Z,3.58
2023-09-01T02:44:50.701Z,3.78
2023-09-01T02:49:49.581Z,3.67
2023-09-01T02:54:49.844Z,3.78
2023-09-01T02:59:48.693Z,3.60
2023-09-01T03:04:49.701Z,4.20
2023-09-01T03:09:50.429Z,3.97
2023-09-01T03:14:50.081Z,3.97
2023-09-01T03:19:51.981Z,4.03
2023-09-01T03:24:53.531Z,3.57
2023-09-01T03:34:57.614Z,3.28
2023-09-01T03:39:57.996Z,3.67
2023-09-01T03:44:56.869Z,4.22
2023-09-01T03:49:55.996Z,3.45
2023-09-01T03:54:55.777Z,4.20
2023-09-01T03:59:56.157Z,4.28
2023-09-01T04:04:54.989Z,3.72
2023-09-01T04:09:53.835Z,3.70
2023-09-01T04:14:52.794Z,3.58
2023-09-01T04:19:53.315Z,4.85
2023-09-01T04:24:53.024Z,3.95
2023-09-01T04:30:07.770Z,3.65
2023-09-01T04:35:12.058Z,4.72
2023-09-01T04:40:12.605Z,4.50
2023-09-01T04:45:12.407Z,4.60
2023-09-01T04:50:12.867Z,4.03
2023-09-01T04:55:12.068Z,5.07
2023-09-01T05:00:18.234Z,4.80
2023-09-01T05:05:18.901Z,4.70
2023-09-01T05:10:18.717Z,5.13
2023-09-01T05:15:17.729Z,4.38
2023-09-01T05:20:16.781Z,4.60
2023-09-01T05:25:17.355Z,4.53
2023-09-01T05:30:16.318Z,4.80
2023-09-01T05:35:15.866Z,5.25
2023-09-01T05:40:18.418Z,4.47
2023-09-01T05:45:18.248Z,5.07
2023-09-01T05:50:17.334Z,5.22
2023-09-01T05:55:18.161Z,4.40
2023-09-01T06:00:17.652Z,5.30
2023-09-01T06:05:18.028Z,5.63
2023-09-01T06:10:18.698Z,4.45
2023-09-01T06:15:17.557Z,5.28
2023-09-01T06:20:20.226Z,4.57
2023-09-01T06:25:24.185Z,4.72
2023-09-01T06:30:24.751Z,4.35
2023-09-01T06:35:23.640Z,4.47
2023-09-01T06:40:23.938Z,4.40
2023-09-01T06:45:22.894Z,4.85
2023-09-01T06:50:21.935Z,4.22
2023-09-01T06:55:20.707Z,4.95
2023-09-01T07:00:21.520Z,4.80
2023-09-01T07:05:21.676Z,4.10
2023-09-01T07:10:21.324Z,4.47
2023-09-01T07:15:22.011Z,4.57
2023-09-01T07:20:21.022Z,4.30
2023-09-01T07:25:20.035Z,4.57
2023-09-01T07:30:18.982Z,3.92
2023-09-01T07:35:19.424Z,4.20
2023-09-01T07:40:18.320Z,3.58
2023-09-01T07:45:17.666Z,4.00
2023-09-01T07:50:16.696Z,3.95
2023-09-01T07:55:17.253Z,3.90
2023-09-01T08:00:18.598Z,3.87
2023-09-01T08:05:17.636Z,4.33
2023-09-01T08:10:18.094Z,3.88
2023-09-01T08:15:17.042Z,3.80
2023-09-01T08:20:15.892Z,3.58
2023-09-01T08:25:14.867Z,3.35
2023-09-01T08:30:15.715Z,3.65
2023-09-01T08:35:14.848Z,3.40
2023-09-01T08:40:14.049Z,2.88
2023-09-01T08:45:16.047Z,4.20
2023-09-01T08:50:16.162Z,3.65
2023-09-01T08:55:15.220Z,3.30
2023-09-01T09:00:16.789Z,3.17
2023-09-01T09:05:17.827Z,2.85
2023-09-01T09:10:16.739Z,3.60
2023-09-01T09:15:21.186Z,2.85
2023-09-01T09:20:41.195Z,2.80
2023-09-01T09:25:40.019Z,3.03
2023-09-01T09:30:50.605Z,2.85
2023-09-01T09:35:53.068Z,2.70
2023-09-01T09:40:58.980Z,2.70
2023-09-01T09:46:02.137Z,2.97
2023-09-01T09:51:02.338Z,2.38
2023-09-01T09:56:11.773Z,2.70
2023-09-01T10:01:18.357Z,2.75
2023-09-01T10:06:19.210Z,3.17
2023-09-01T10:11:19.999Z,2.47
2023-09-01T10:16:20.995Z,2.95
2023-09-01T10:21:19.895Z,2.55
2023-09-01T10:31:27.670Z,2.40
2023-09-01T10:36:26.937Z,2.38
2023-09-01T10:41:52.749Z,2.45
2023-09-01T10:46:53.189Z,2.47
2023-09-01T10:52:15.485Z,3.00
2023-09-01T10:57:16.167Z,2.20
2023-09-01T11:02:30.025Z,2.55
2023-09-01T11:07:33.067Z,2.95
2023-09-01T11:12:40.566Z,2.10
2023-09-01T11:17:46.336Z,2.45
2023-09-01T11:22:47.455Z,2.47
2023-09-01T11:27:57.071Z,2.65
2023-09-01T11:33:02.214Z,2.10
2023-09-01T11:38:02.339Z,2.38
2023-09-01T11:43:03.029Z,2.10
2023-09-01T11:48:09.595Z,2.25
2023-09-01T11:53:08.923Z,2.28
2023-09-01T11:58:09.969Z,2.30
2023-09-01T12:03:11.158Z,2.60
2023-09-01T12:08:17.586Z,2.53
2023-09-01T12:13:38.005Z,2.20
2023-09-01T12:18:44.976Z,2.47
2023-09-01T12:23:50.588Z,2.20
2023-09-01T12:28:56.557Z,2.25
2023-09-01T12:34:00.074Z,2.20
2023-09-01T12:39:02.004Z,1.70
2023-09-01T12:44:26.819Z,2.13
2023-09-01T12:49:33.867Z,2.00
2023-09-01T12:54:48.197Z,2.42
2023-09-01T12:59:58.777Z,2.33
2023-09-01T13:05:19.860Z,2.00
2023-09-01T13:10:33.523Z,1.98
2023-09-01T13:15:35.587Z,2.20
2023-09-01T13:20:46.207Z,1.98
2023-09-01T13:25:45.128Z,2.13
2023-09-01T13:30:45.780Z,1.90
2023-09-01T13:36:03.025Z,2.10
2023-09-01T13:41:10.658Z,2.42
2023-09-01T13:46:23.615Z,2.38
2023-09-01T13:51:30.064Z,2.40
2023-09-01T13:56:32.375Z,2.45
2023-09-01T14:01:32.052Z,2.40
2023-09-01T14:06:33.489Z,2.20
2023-09-01T14:11:36.057Z,2.22
2023-09-01T14:16:35.065Z,2.17
2023-09-01T14:21:44.486Z,2.00
2023-09-01T14:26:52.656Z,2.65
2023-09-01T14:31:52.793Z,2.30
2023-09-01T14:36:54.011Z,1.98
2023-09-01T14:41:53.935Z,1.98
2023-09-01T14:46:54.338Z,2.13
2023-09-01T14:51:55.100Z,2.38
2023-09-01T14:57:29.044Z,2.72
2023-09-01T15:03:10.036Z,2.50
2023-09-01T15:08:12.909Z,2.53
2023-09-01T15:13:18.493Z,2.15
2023-09-01T15:18:17.788Z,2.80
2023-09-01T15:23:18.749Z,2.33
2023-09-01T15:28:18.135Z,2.38
2023-09-01T15:33:17.492Z,2.42
2023-09-01T15:43:16.823Z,2.03
2023-09-01T15:48:16.199Z,2.60
2023-09-01T15:53:16.083Z,2.60
2023-09-01T15:58:16.608Z,2.22
2023-09-01T16:03:18.816Z,2.03
2023-09-01T16:08:21.406Z,1.95
2023-09-01T16:13:21.684Z,1.70
2023-09-01T16:18:20.445Z,2.40
2023-09-01T16:23:19.286Z,1.97
2023-09-01T16:28:19.440Z,2.22
2023-09-01T16:33:19.647Z,2.58
2023-09-01T16:38:18.442Z,2.30
2023-09-01T16:43:17.900Z,1.98
2023-09-01T16:48:17.800Z,1.80
2023-09-01T16:53:18.261Z,2.67
2023-09-01T16:58:17.546Z,2.50
2023-09-01T17:03:16.563Z,2.20
2023-09-01T17:08:15.713Z,2.00
2023-09-01T17:13:17.077Z,1.50
2023-09-01T17:18:16.589Z,1.33
2023-09-01T17:23:16.001Z,1.58
2023-09-01T17:28:16.370Z,2.28
2023-09-01T17:33:15.735Z,2.17
2023-09-01T17:38:18.225Z,1.80
2023-09-01T17:43:18.833Z,2.45
2023-09-01T17:48:18.028Z,3.47
2023-09-01T17:53:17.022Z,3.58
2023-09-01T17:58:16.015Z,3.75
2023-09-01T18:03:16.581Z,3.58
2023-09-01T18:13:15.785Z,2.88
2023-09-01T18:18:16.898Z,2.53
2023-09-01T18:28:18.185Z,2.30
2023-09-01T18:33:24.594Z,2.85
2023-09-01T18:38:27.097Z,3.13
2023-09-01T18:43:28.896Z,3.38
2023-09-01T18:48:29.370Z,4.32
2023-09-01T18:53:33.142Z,6.10
2023-09-01T18:58:40.709Z,4.40
2023-09-01T19:03:42.987Z,4.90
2023-09-01T19:08:42.136Z,3.83
2023-09-01T19:13:41.166Z,4.13
2023-09-01T19:18:42.816Z,3.35
2023-09-01T19:23:42.462Z,3.20
2023-09-01T19:28:46.330Z,2.90
2023-09-01T19:33:54.919Z,2.42
2023-09-01T19:38:53.944Z,2.38
2023-09-01T19:43:58.093Z,3.13
2023-09-01T19:48:59.886Z,2.30
2023-09-01T19:54:00.556Z,2.47
2023-09-01T19:59:02.129Z,2.22
2023-09-01T20:04:03.360Z,2.00
2023-09-01T20:09:13.088Z,2.15
2023-09-01T20:14:12.558Z,1.75
2023-09-01T20:19:16.202Z,1.80
2023-09-01T20:24:14.940Z,2.03
2023-09-01T20:29:13.911Z,2.40
2023-09-01T20:34:17.169Z,2.15
2023-09-01T20:39:17.080Z,2.60
2023-09-01T20:44:16.166Z,2.33
2023-09-01T20:49:16.554Z,2.25
2023-09-01T20:54:15.407Z,2.50
2023-09-01T20:59:14.194Z,2.25
2023-09-01T21:04:13.109Z,2.10
2023-09-01T21:09:14.200Z,1.98
2023-09-01T21:14:13.264Z,2.60
2023-09-01T21:19:12.927Z,2.88
2023-09-01T21:24:13.168Z,2.90
2023-09-01T21:29:12.105Z,3.05
2023-09-01T21:34:11.031Z,2.90
2023-09-01T21:39:10.001Z,3.00
2023-09-01T21:44:12.685Z,3.00
2023-09-01T21:49:12.001Z,3.20
2023-09-01T21:54:11.016Z,3.50
2023-09-01T21:59:11.400Z,3.45
2023-09-01T22:04:10.553Z,2.92
2023-09-01T22:09:09.582Z,2.45
2023-09-01T22:14:08.510Z,2.45
2023-09-01T22:19:08.876Z,3.00
2023-09-01T22:24:08.905Z,2.45
2023-09-01T22:29:07.741Z,2.42
2023-09-01T22:34:08.108Z,2.45
2023-09-01T22:40:35.409Z,2.22
2023-09-01T22:45:34.391Z,2.35
2023-09-01T22:50:34.708Z,3.03
2023-09-01T22:55:33.759Z,2.35
2023-09-01T23:00:34.536Z,2.63
2023-09-01T23:05:34.973Z,2.58
2023-09-01T23:10:34.175Z,2.38
2023-09-01T23:15:33.291Z,2.35
2023-09-01T23:20:32.269Z,2.50
2023-09-01T23:25:34.825Z,2.65
2023-09-01T23:30:34.038Z,2.00
2023-09-01T23:35:33.546Z,2.58
2023-09-01T23:40:34.392Z,2.80
2023-09-01T23:45:33.420Z,2.87
2023-09-01T23:50:32.402Z,2.53
2023-09-01T23:55:31.212Z,3.15
